createdAt,value
2023-04-11T00:02:55.177Z,46.63
2023-04-11T00:08:23.378Z,46.90
2023-04-11T00:13:51.348Z,46.03
2023-04-11T00:19:23.510Z,48.05
2023-04-11T00:24:53.321Z,45.15
2023-04-11T00:30:20.904Z,46.72
2023-04-11T00:35:47.888Z,47.85
2023-04-11T00:41:14.814Z,44.50
2023-04-11T00:46:46.658Z,44.25
2023-04-11T00:52:14.343Z,45.00
2023-04-11T00:57:43.081Z,45.83
2023-04-11T01:03:10.537Z,44.20
2023-04-11T01:08:39.239Z,46.53
2023-04-11T01:14:07.490Z,43.55
2023-04-11T01:19:35.095Z,45.47
2023-04-11T01:25:02.393Z,46.67
2023-04-11T01:30:30.060Z,46.53
2023-04-11T01:35:57.294Z,47.25
2023-04-11T01:41:26.997Z,48.30
2023-04-11T01:46:54.214Z,45.38
2023-04-11T01:52:22.100Z,45.72
2023-04-11T01:57:49.310Z,45.05
2023-04-11T02:03:21.384Z,46.72
2023-04-11T02:08:49.455Z,48.17
2023-04-11T02:14:20.595Z,46.65
2023-04-11T02:19:48.490Z,46.83
2023-04-11T02:25:16.349Z,45.00
2023-04-11T02:30:43.213Z,44.35
2023-04-11T02:36:12.772Z,42.90
2023-04-11T02:41:41.041Z,42.55
2023-04-11T02:47:08.803Z,42.80
2023-04-11T02:52:39.624Z,42.83
2023-04-11T02:58:07.560Z,41.20
2023-04-11T03:03:35.533Z,40.83
2023-04-11T03:09:04.305Z,40.70
2023-04-11T03:14:33.068Z,41.17
2023-04-11T03:20:01.196Z,42.13
2023-04-11T03:25:29.932Z,40.50
2023-04-11T03:30:57.289Z,41.22
2023-04-11T03:36:28.899Z,43.45
2023-04-11T03:42:02.562Z,42.78
2023-04-11T03:47:31.900Z,43.03
2023-04-11T03:52:59.364Z,43.60
2023-04-11T03:58:28.601Z,43.25
2023-04-11T04:03:56.757Z,44.70
2023-04-11T04:09:24.726Z,42.75
2023-04-11T04:14:55.580Z,41.90
2023-04-11T04:20:23.678Z,43.00
2023-04-11T04:25:58.244Z,41.78
2023-04-11T04:31:33.925Z,42.40
2023-04-11T04:37:06.846Z,43.72
2023-04-11T04:42:44.346Z,43.78
2023-04-11T04:48:14.716Z,40.90
2023-04-11T04:53:42.922Z,34.53
2023-04-11T04:59:14.972Z,39.72
2023-04-11T05:04:48.878Z,38.30
2023-04-11T05:10:16.858Z,38.63
2023-04-11T05:15:49.596Z,37.35
2023-04-11T05:21:16.722Z,36.58
2023-04-11T05:26:47.114Z,35.80
2023-04-11T05:32:18.583Z,37.17
2023-04-11T05:37:46.299Z,37.17
2023-04-11T05:43:15.475Z,36.58
2023-04-11T05:48:43.052Z,33.67
2023-04-11T05:54:11.159Z,33.38
2023-04-11T05:59:38.939Z,34.47
2023-04-11T06:05:06.553Z,34.92
2023-04-11T06:10:34.843Z,33.60
2023-04-11T06:16:02.814Z,35.50
2023-04-11T06:21:32.133Z,32.50
2023-04-11T06:27:00.040Z,31.63
2023-04-11T06:32:28.454Z,31.60
2023-04-11T06:37:56.189Z,31.50
2023-04-11T06:43:25.510Z,32.40
2023-04-11T06:48:53.003Z,31.95
2023-04-11T06:54:21.356Z,32.38
2023-04-11T06:59:48.979Z,33.33
2023-04-11T07:05:16.454Z,30.33
2023-04-11T07:10:44.264Z,30.17
2023-04-11T07:16:12.245Z,29.52
2023-04-11T07:21:40.041Z,28.13
2023-04-11T07:27:07.204Z,31.08
2023-04-11T07:32:34.888Z,29.58
2023-04-11T07:38:02.368Z,33.47
2023-04-11T07:43:30.673Z,32.80
2023-04-11T07:48:58.112Z,30.20
2023-04-11T07:54:28.761Z,30.73
2023-04-11T07:59:57.418Z,31.35
2023-04-11T08:05:26.069Z,30.73
2023-04-11T08:10:53.106Z,29.73
2023-04-11T08:16:20.371Z,29.77
2023-04-11T08:21:48.552Z,28.48
2023-04-11T08:27:16.399Z,28.52
2023-04-11T08:32:44.737Z,29.33
2023-04-11T08:38:12.542Z,29.02
2023-04-11T08:43:40.602Z,29.17
2023-04-11T08:49:08.732Z,27.08
2023-04-11T08:54:36.321Z,29.85
2023-04-11T09:00:15.325Z,28.58
2023-04-11T09:05:44.816Z,27.30
2023-04-11T09:11:12.403Z,30.13
2023-04-11T09:16:54.550Z,26.58
2023-04-11T09:22:36.602Z,26.67
2023-04-11T09:28:10.483Z,26.70
2023-04-11T09:33:37.302Z,21.75
2023-04-11T09:39:20.636Z,24.02
2023-04-11T09:44:48.472Z,19.92
2023-04-11T09:50:16.233Z,19.15
2023-04-11T09:55:43.219Z,17.52
2023-04-11T10:01:10.950Z,17.45
2023-04-11T10:07:02.361Z,18.52
2023-04-11T10:12:34.143Z,19.58
2023-04-11T10:18:11.939Z,16.92
2023-04-11T10:24:15.878Z,17.60
2023-04-11T10:29:50.730Z,18.45
2023-04-11T10:35:18.155Z,15.73
2023-04-11T10:41:17.491Z,15.65
2023-04-11T10:46:49.973Z,15.82
2023-04-11T10:58:20.052Z,11.30
2023-04-11T11:03:57.162Z,11.82
2023-04-11T11:09:25.901Z,13.20
2023-04-11T11:14:54.765Z,13.50
2023-04-11T11:20:22.014Z,15.32
2023-04-11T11:25:57.400Z,15.50
2023-04-11T11:31:35.274Z,16.45
2023-04-11T11:37:07.346Z,10.13
2023-04-11T11:42:37.017Z,4.78
2023-04-11T11:48:05.028Z,5.05
2023-04-11T11:53:33.132Z,4.93
2023-04-11T11:59:00.995Z,4.65
2023-04-11T12:04:31.222Z,4.70
2023-04-11T12:10:22.813Z,4.30
2023-04-11T12:15:55.852Z,3.65
2023-04-11T12:21:22.693Z,2.90
2023-04-11T12:27:05.649Z,4.18
2023-04-11T12:32:35.379Z,4.05
2023-04-11T12:38:04.511Z,3.97
2023-04-11T12:43:32.476Z,3.65
2023-04-11T12:49:00.136Z,5.13
2023-04-11T12:54:28.180Z,7.20
2023-04-11T12:59:56.283Z,5.63
2023-04-11T13:05:24.570Z,5.45
2023-04-11T13:10:53.449Z,3.72
2023-04-11T13:16:21.566Z,4.65
2023-04-11T13:21:49.509Z,4.30
2023-04-11T13:27:17.484Z,4.95
2023-04-11T13:32:45.106Z,4.97
2023-04-11T13:38:12.973Z,5.60
2023-04-11T13:43:39.901Z,5.00
2023-04-11T13:49:07.188Z,3.10
2023-04-11T13:54:33.918Z,2.85
2023-04-11T14:00:00.979Z,2.78
2023-04-11T14:05:28.877Z,3.72
2023-04-11T14:10:56.652Z,3.40
2023-04-11T14:16:24.049Z,4.88
2023-04-11T14:21:52.238Z,4.72
2023-04-11T14:27:19.248Z,5.13
2023-04-11T14:32:46.329Z,8.90
2023-04-11T14:38:16.091Z,4.82
2023-04-11T14:43:43.266Z,6.05
2023-04-11T14:49:10.198Z,5.72
2023-04-11T14:54:37.607Z,7.03
2023-04-11T15:00:06.771Z,6.38
2023-04-11T15:05:34.422Z,5.20
2023-04-11T15:11:03.551Z,5.15
2023-04-11T15:16:32.320Z,4.45
2023-04-11T15:21:59.348Z,4.88
2023-04-11T15:27:27.887Z,4.43
2023-04-11T15:32:55.380Z,5.13
2023-04-11T15:38:23.278Z,3.28
2023-04-11T15:43:50.789Z,2.75
2023-04-11T15:49:18.626Z,3.00
2023-04-11T15:54:46.684Z,3.78
2023-04-11T16:00:15.906Z,4.15
2023-04-11T16:05:44.373Z,3.78
2023-04-11T16:11:11.778Z,5.10
2023-04-11T16:16:39.516Z,3.78
2023-04-11T16:22:06.502Z,3.40
2023-04-11T16:27:34.155Z,2.67
2023-04-11T16:33:02.061Z,3.38
2023-04-11T16:38:29.652Z,3.17
2023-04-11T16:43:56.839Z,3.55
2023-04-11T16:49:25.267Z,3.90
2023-04-11T16:54:53.032Z,3.38
2023-04-11T17:00:20.970Z,2.65
2023-04-11T17:05:48.663Z,3.60
2023-04-11T17:11:15.882Z,3.28
2023-04-11T17:16:44.034Z,4.47
2023-04-11T17:22:11.900Z,4.85
2023-04-11T17:27:41.631Z,4.70
2023-04-11T17:33:09.973Z,3.83
2023-04-11T17:38:39.659Z,4.30
2023-04-11T17:44:06.910Z,3.67
2023-04-11T17:49:34.740Z,3.95
2023-04-11T17:55:03.711Z,3.80
2023-04-11T18:00:31.929Z,3.55
2023-04-11T18:06:01.449Z,4.53
2023-04-11T18:11:28.895Z,3.17
2023-04-11T18:16:56.171Z,3.05
2023-04-11T18:22:23.891Z,2.83
2023-04-11T18:27:51.921Z,1.90
2023-04-11T18:33:20.729Z,1.73
2023-04-11T18:38:49.392Z,2.50
2023-04-11T18:44:17.205Z,1.75
2023-04-11T18:49:44.960Z,2.10
2023-04-11T18:55:12.189Z,2.13
2023-04-11T19:00:40.216Z,2.38
2023-04-11T19:06:08.780Z,4.03
2023-04-11T19:11:38.383Z,3.50
2023-04-11T19:17:06.724Z,2.13
2023-04-11T19:22:36.064Z,3.45
2023-04-11T19:28:03.272Z,3.95
2023-04-11T19:33:31.836Z,4.60
2023-04-11T19:38:58.913Z,4.50
2023-04-11T19:44:26.188Z,4.10
2023-04-11T19:49:54.533Z,4.47
2023-04-11T19:55:22.710Z,4.28
2023-04-11T20:00:50.241Z,4.45
2023-04-11T20:06:18.869Z,4.53
2023-04-11T20:11:47.980Z,4.97
2023-04-11T20:17:16.070Z,5.88
2023-04-11T20:22:45.044Z,5.30
2023-04-11T20:28:12.802Z,5.53
2023-04-11T20:33:40.309Z,5.88
2023-04-11T20:39:08.225Z,6.30
2023-04-11T20:44:37.132Z,6.38
2023-04-11T20:50:10.549Z,6.38
2023-04-11T20:55:38.227Z,6.80
2023-04-11T21:01:05.685Z,7.00
2023-04-11T21:06:33.818Z,7.35
2023-04-11T21:12:02.532Z,7.85
2023-04-11T21:17:34.849Z,8.20
2023-04-11T21:23:03.154Z,7.55
2023-04-11T21:28:31.179Z,7.25
2023-04-11T21:33:58.747Z,8.73
2023-04-11T21:39:26.560Z,9.93
2023-04-11T21:44:54.665Z,8.88
2023-04-11T21:50:22.669Z,9.15
2023-04-11T21:55:50.640Z,9.45
2023-04-11T22:01:20.962Z,9.13
2023-04-11T22:06:48.640Z,8.80
2023-04-11T22:12:18.078Z,8.93
2023-04-11T22:17:51.270Z,9.70
2023-04-11T22:28:46.628Z,7.50
2023-04-11T22:34:14.404Z,7.43
2023-04-11T22:39:41.747Z,8.07
2023-04-11T22:45:10.270Z,7.47
2023-04-11T22:50:37.524Z,7.90
2023-04-11T22:56:06.069Z,7.60
2023-04-11T23:01:33.789Z,7.40
2023-04-11T23:07:02.070Z,7.70
2023-04-11T23:12:29.937Z,8.50
2023-04-11T23:17:58.609Z,8.98
2023-04-11T23:23:25.537Z,9.23
2023-04-11T23:28:53.554Z,9.27
2023-04-11T23:34:21.210Z,9.20
2023-04-11T23:39:49.263Z,8.13
2023-04-11T23:45:20.771Z,7.85
2023-04-11T23:50:49.077Z,8.48
2023-04-11T23:56:17.054Z,9.13
